Time;durP1;ratioP1;P1;durP2;ratioP2;P2;SDS_P1;SDS_P2;PMS_P1;PMS_P2;Temp;Humidity;BMP_temperature;BMP_pressure;BME280_temperature;BME280_humidity;BME280_pressure;Samples;Min_cycle;Max_cycle;Signal;HPM_P1;HPM_P2
2021/12/29 00:01:19;;;;;;;25.98;5.63;;;14.90;76.20;;;;;;4111050;28;20479;-58
2021/12/29 00:03:45;;;;;;;22.77;5.70;;;14.80;76.30;;;;;;4110911;28;20117;-58
2021/12/29 00:06:08;;;;;;;18.63;6.00;;;14.80;76.30;;;;;;4109271;28;20449;-58
2021/12/29 00:08:31;;;;;;;19.15;6.03;;;14.80;76.20;;;;;;4110980;28;20825;-58
2021/12/29 00:10:57;;;;;;;27.27;6.20;;;14.80;76.40;;;;;;4101552;28;20106;-58
2021/12/29 00:13:19;;;;;;;20.38;6.03;;;14.80;76.50;;;;;;4094704;28;20055;-58
2021/12/29 00:15:42;;;;;;;24.63;6.15;;;14.80;76.90;;;;;;4105070;28;20466;-59
2021/12/29 00:18:08;;;;;;;16.63;4.90;;;14.80;77.50;;;;;;4109858;28;20514;-58
2021/12/29 00:20:32;;;;;;;15.60;5.07;;;14.90;77.50;;;;;;4106279;28;20107;-57
2021/12/29 00:22:56;;;;;;;8.40;4.60;;;14.90;77.20;;;;;;4094612;28;20046;-59
2021/12/29 00:25:19;;;;;;;16.15;5.07;;;15.00;77.10;;;;;;4094236;28;20063;-58
2021/12/29 00:27:43;;;;;;;13.18;5.40;;;15.00;76.90;;;;;;4094435;28;20055;-58
2021/12/29 00:30:09;;;;;;;14.75;5.22;;;15.10;76.70;;;;;;4096030;28;20479;-59
2021/12/29 00:32:50;;;;;;;16.65;5.50;;;15.10;76.50;;;;;;4110001;28;20046;-58
2021/12/29 00:35:34;;;;;;;6.82;5.13;;;15.10;76.50;;;;;;4101859;28;20051;-58
2021/12/29 00:38:16;;;;;;;6.10;5.50;;;15.10;76.40;;;;;;4093172;28;20106;-58
2021/12/29 00:40:58;;;;;;;6.93;6.22;;;15.10;76.40;;;;;;4093933;28;20051;-58
2021/12/29 00:43:40;;;;;;;9.38;5.97;;;15.10;76.40;;;;;;4108582;28;20054;-57
2021/12/29 00:46:18;;;;;;;7.90;6.05;;;15.10;76.40;;;;;;4107554;28;20054;-58
2021/12/29 00:48:43;;;;;;;8.48;5.70;;;15.10;76.40;;;;;;4109969;28;20055;-58
2021/12/29 00:51:07;;;;;;;9.38;6.05;;;15.10;76.60;;;;;;4110165;28;20371;-57
2021/12/29 00:53:30;;;;;;;10.57;5.95;;;15.20;76.80;;;;;;4110358;28;20046;-58
2021/12/29 00:55:53;;;;;;;20.58;6.72;;;15.20;76.60;;;;;;4094085;28;20111;-58
2021/12/29 00:58:19;;;;;;;13.77;6.15;;;15.30;76.20;;;;;;4094376;28;20488;-58
2021/12/29 01:00:44;;;;;;;14.40;5.85;;;15.30;75.90;;;;;;4094641;28;20454;-58
2021/12/29 01:03:08;;;;;;;8.00;6.80;;;15.30;75.70;;;;;;4106795;28;20117;-58
2021/12/29 01:05:31;;;;;;;8.38;6.72;;;15.30;75.70;;;;;;4109992;28;20055;-59
2021/12/29 01:07:54;;;;;;;6.95;6.25;;;15.40;75.80;;;;;;4093940;28;20085;-58
2021/12/29 01:10:19;;;;;;;7.10;6.40;;;15.40;75.50;;;;;;4094327;28;20051;-57
2021/12/29 01:12:49;;;;;;;10.50;6.68;;;15.40;75.50;;;;;;4094311;28;20106;-58
2021/12/29 01:15:14;;;;;;;6.72;6.03;;;15.40;75.40;;;;;;4094468;28;20746;-58
2021/12/29 01:17:39;;;;;;;8.15;5.50;;;15.40;75.30;;;;;;4094740;28;20090;-58
2021/12/29 01:20:02;;;;;;;6.15;5.40;;;15.40;75.20;;;;;;4092376;28;20063;-59
2021/12/29 01:22:25;;;;;;;13.70;5.38;;;15.40;75.40;;;;;;4094160;28;20079;-58
2021/12/29 01:24:48;;;;;;;5.50;5.00;;;15.40;75.30;;;;;;4093767;28;20503;-58
2021/12/29 01:27:12;;;;;;;5.45;4.95;;;15.30;76.20;;;;;;4093621;28;21005;-59
2021/12/29 01:29:34;;;;;;;5.82;5.25;;;15.30;75.50;;;;;;4095984;28;21502;-59
2021/12/29 01:31:58;;;;;;;5.72;5.15;;;15.30;75.50;;;;;;4109982;28;20106;-58
2021/12/29 01:34:23;;;;;;;5.80;5.20;;;15.30;75.60;;;;;;4108184;28;20353;-58
2021/12/29 01:36:46;;;;;;;5.50;4.88;;;15.30;76.00;;;;;;4110127;28;20059;-58
2021/12/29 01:39:11;;;;;;;7.13;4.85;;;15.40;75.90;;;;;;4110041;28;20122;-58
2021/12/29 01:41:35;;;;;;;6.65;5.60;;;15.50;75.40;;;;;;4106198;28;20051;-58
2021/12/29 01:43:58;;;;;;;5.43;4.93;;;15.50;74.90;;;;;;4093928;28;20047;-58
2021/12/29 01:46:21;;;;;;;7.65;5.78;;;15.60;74.70;;;;;;4094011;28;20428;-58
2021/12/29 01:48:44;;;;;;;5.68;5.13;;;15.60;74.40;;;;;;4093934;28;20496;-58
2021/12/29 01:51:08;;;;;;;6.15;5.03;;;15.60;75.10;;;;;;4107154;28;20050;-58
2021/12/29 01:53:33;;;;;;;7.40;5.57;;;15.60;74.30;;;;;;4113166;28;20143;-58
2021/12/29 01:55:57;;;;;;;7.22;5.40;;;15.60;74.30;;;;;;4112341;28;20520;-58
2021/12/29 01:58:22;;;;;;;7.43;5.72;;;15.50;74.50;;;;;;4112699;28;20046;-58
2021/12/29 02:00:45;;;;;;;8.25;6.43;;;15.50;74.60;;;;;;4101443;28;20467;-58
2021/12/29 02:03:08;;;;;;;8.70;6.03;;;15.50;74.90;;;;;;4096426;28;20059;-57
2021/12/29 02:05:32;;;;;;;10.52;6.60;;;15.50;74.90;;;;;;4096384;28;20054;-57
2021/12/29 02:07:56;;;;;;;9.40;7.20;;;15.50;75.00;;;;;;4097304;28;20055;-58
2021/12/29 02:10:20;;;;;;;8.85;6.38;;;15.40;74.90;;;;;;4096529;28;20098;-58
2021/12/29 02:12:43;;;;;;;9.52;6.97;;;15.40;75.00;;;;;;4097295;28;20437;-58
2021/12/29 02:15:08;;;;;;;11.63;7.25;;;15.40;75.10;;;;;;4097317;28;20110;-57
2021/12/29 02:17:32;;;;;;;13.75;7.93;;;15.40;75.10;;;;;;4096863;28;20063;-58
2021/12/29 02:19:59;;;;;;;11.23;7.75;;;15.30;75.20;;;;;;4096679;28;20047;-58
2021/12/29 02:22:34;;;;;;;14.43;8.35;;;15.30;75.60;;;;;;4096141;28;20591;-58
2021/12/29 02:25:08;;;;;;;15.68;9.15;;;15.40;76.70;;;;;;4096583;28;20094;-58
2021/12/29 02:27:33;;;;;;;18.30;9.05;;;15.60;75.10;;;;;;4095986;28;20176;-58
2021/12/29 02:29:56;;;;;;;14.00;8.60;;;15.80;74.30;;;;;;4096493;28;20051;-58
2021/12/29 02:32:19;;;;;;;12.35;8.73;;;15.90;73.60;;;;;;4096341;28;20476;-58
2021/12/29 02:34:42;;;;;;;14.05;8.45;;;16.00;73.10;;;;;;4096215;28;20043;-58
2021/12/29 02:37:07;;;;;;;15.45;9.73;;;16.00;72.60;;;;;;4106435;28;20055;-58
2021/12/29 02:39:31;;;;;;;15.02;10.15;;;16.00;72.50;;;;;;4106435;28;20110;-58
2021/12/29 02:41:55;;;;;;;12.82;8.40;;;16.00;72.60;;;;;;4096210;28;20105;-58
2021/12/29 02:44:24;;;;;;;16.13;9.65;;;16.00;72.60;;;;;;4096213;28;20055;-58
2021/12/29 02:46:47;;;;;;;17.38;10.63;;;16.00;72.70;;;;;;4095896;28;20051;-58
2021/12/29 02:49:10;;;;;;;13.55;9.82;;;15.90;72.80;;;;;;4108632;28;20454;-58
2021/12/29 02:51:34;;;;;;;15.82;9.32;;;15.90;72.80;;;;;;4111986;28;21064;-58
2021/12/29 02:53:59;;;;;;;16.10;9.98;;;15.90;73.00;;;;;;4102126;28;20117;-58
2021/12/29 02:56:23;;;;;;;16.70;10.20;;;15.90;73.10;;;;;;4112013;28;20400;-58
2021/12/29 02:58:46;;;;;;;16.30;9.40;;;15.80;74.00;;;;;;4111772;28;20051;-57
2021/12/29 03:01:14;;;;;;;16.50;9.90;;;15.80;73.50;;;;;;4097774;28;20055;-59
2021/12/29 03:03:38;;;;;;;18.10;10.48;;;15.70;73.70;;;;;;4095465;28;20047;-58
2021/12/29 03:06:01;;;;;;;14.77;9.90;;;15.60;73.80;;;;;;4094062;28;20052;-58
2021/12/29 03:08:25;;;;;;;18.63;10.88;;;15.60;75.10;;;;;;4095883;28;20126;-58
2021/12/29 03:10:52;;;;;;;15.38;9.70;;;15.60;74.60;;;;;;4111719;28;20109;-57
2021/12/29 03:13:16;;;;;;;16.42;10.90;;;15.70;74.50;;;;;;4110442;28;20491;-58
2021/12/29 03:15:39;;;;;;;14.48;9.82;;;15.70;75.00;;;;;;4111432;28;20103;-58
2021/12/29 03:18:03;;;;;;;15.43;10.15;;;15.80;73.90;;;;;;4111547;28;20055;-57
2021/12/29 03:20:25;;;;;;;12.73;8.10;;;15.80;73.50;;;;;;4111252;28;20046;-58
2021/12/29 03:22:48;;;;;;;14.00;9.25;;;15.90;73.40;;;;;;4111310;28;20046;-59
2021/12/29 03:25:12;;;;;;;11.75;7.97;;;15.90;73.50;;;;;;4101650;28;20093;-58
2021/12/29 03:27:36;;;;;;;12.68;8.80;;;15.90;73.50;;;;;;4095504;28;20102;-57
2021/12/29 03:29:59;;;;;;;12.57;8.13;;;15.90;73.70;;;;;;4095384;28;20106;-58
2021/12/29 03:32:36;;;;;;;12.25;8.30;;;15.80;73.70;;;;;;4101810;28;20058;-58
2021/12/29 03:34:59;;;;;;;10.32;7.78;;;15.80;73.80;;;;;;4111170;28;20046;-59
2021/12/29 03:37:22;;;;;;;9.80;7.60;;;15.80;73.90;;;;;;4111546;28;20055;-58
2021/12/29 03:39:45;;;;;;;9.00;6.35;;;15.80;74.80;;;;;;4111329;28;20055;-58
2021/12/29 03:42:09;;;;;;;8.95;6.75;;;15.70;74.20;;;;;;4104901;28;20479;-58
2021/12/29 03:44:34;;;;;;;8.38;6.18;;;15.70;74.40;;;;;;4110584;28;20089;-58
2021/12/29 03:46:57;;;;;;;9.43;6.55;;;15.70;74.30;;;;;;4111246;28;20051;-58
2021/12/29 03:49:20;;;;;;;8.52;6.55;;;15.70;75.20;;;;;;4111104;28;20081;-58
2021/12/29 03:51:43;;;;;;;10.63;7.03;;;15.70;74.40;;;;;;4111388;28;20427;-58
2021/12/29 03:54:07;;;;;;;14.18;7.47;;;15.60;74.40;;;;;;4106658;28;20055;-58
2021/12/29 03:56:30;;;;;;;12.98;7.25;;;15.60;74.50;;;;;;4094933;28;20055;-58
2021/12/29 03:58:52;;;;;;;15.52;8.25;;;15.60;75.00;;;;;;4105658;28;20047;-56
2021/12/29 04:01:18;;;;;;;15.40;8.18;;;15.60;75.10;;;;;;4109771;28;20109;-58
2021/12/29 04:03:45;;;;;;;13.60;7.35;;;15.70;74.70;;;;;;4111091;28;20058;-58
2021/12/29 04:06:08;;;;;;;14.90;7.75;;;15.80;74.10;;;;;;4110740;28;20055;-58
2021/12/29 04:08:32;;;;;;;15.13;8.45;;;15.90;73.70;;;;;;4110532;28;20058;-58
2021/12/29 04:10:55;;;;;;;14.80;7.90;;;15.90;73.50;;;;;;4110830;28;20062;-59
2021/12/29 04:13:18;;;;;;;13.02;7.40;;;16.00;73.10;;;;;;4094353;28;20086;-58
2021/12/29 04:15:41;;;;;;;12.50;8.13;;;16.10;72.70;;;;;;4093968;28;20647;-58
2021/12/29 04:18:15;;;;;;;11.60;7.45;;;16.20;72.30;;;;;;4094811;28;20055;-58
2021/12/29 04:20:57;;;;;;;14.07;8.00;;;16.20;72.00;;;;;;4094550;28;20098;-58
2021/12/29 04:23:20;;;;;;;15.27;8.40;;;16.20;71.90;;;;;;4107406;28;20406;-59
2021/12/29 04:25:48;;;;;;;15.55;7.88;;;16.20;72.00;;;;;;4110557;28;20050;-59
2021/12/29 04:28:15;;;;;;;16.85;9.05;;;16.20;72.10;;;;;;4094182;28;20083;-59
2021/12/29 04:30:38;;;;;;;13.75;9.00;;;16.10;72.40;;;;;;4107627;28;20101;-58
2021/12/29 04:33:01;;;;;;;16.95;9.98;;;16.10;72.60;;;;;;4110423;28;20553;-58
2021/12/29 04:35:25;;;;;;;18.60;10.00;;;16.00;72.70;;;;;;4094443;28;20480;-58
2021/12/29 04:37:49;;;;;;;16.95;9.35;;;16.00;72.80;;;;;;4094058;28;20459;-58
2021/12/29 04:40:12;;;;;;;17.75;9.40;;;16.00;73.10;;;;;;4097340;28;20043;-58
2021/12/29 04:42:35;;;;;;;19.73;10.30;;;16.00;73.20;;;;;;4110518;28;20105;-58
2021/12/29 04:44:57;;;;;;;17.80;9.90;;;16.00;73.20;;;;;;4110260;28;20058;-58
2021/12/29 04:47:27;;;;;;;18.42;10.10;;;15.90;73.20;;;;;;4110454;28;20054;-58
2021/12/29 04:49:51;;;;;;;21.45;10.60;;;15.90;73.30;;;;;;4108422;28;20101;-58
2021/12/29 04:52:16;;;;;;;15.25;9.00;;;16.00;73.30;;;;;;4101179;28;20094;-57
2021/12/29 04:54:39;;;;;;;18.08;9.73;;;16.00;73.10;;;;;;4094439;28;20047;-58
2021/12/29 04:57:03;;;;;;;17.05;9.65;;;16.10;73.00;;;;;;4095309;28;20063;-58
2021/12/29 04:59:28;;;;;;;16.98;9.80;;;16.10;72.80;;;;;;4095332;28;20090;-58
2021/12/29 05:01:51;;;;;;;16.15;9.55;;;16.10;72.80;;;;;;4094302;28;20051;-58
2021/12/29 05:04:20;;;;;;;16.83;10.00;;;16.00;72.80;;;;;;4094262;28;20051;-58
2021/12/29 05:09:24;;;;;;;18.05;9.68;;;16.00;73.00;;;;;;4095445;28;20396;-58
2021/12/29 05:11:47;;;;;;;16.33;9.52;;;16.00;73.00;;;;;;4109710;28;20057;-60
2021/12/29 05:14:10;;;;;;;17.10;10.15;;;16.00;73.10;;;;;;4094509;28;20412;-58
2021/12/29 05:16:33;;;;;;;17.10;10.00;;;15.90;73.10;;;;;;4094159;28;20455;-58
2021/12/29 05:18:57;;;;;;;19.55;9.85;;;15.90;73.10;;;;;;4093174;28;20054;-58
2021/12/29 05:21:20;;;;;;;18.45;9.48;;;15.90;73.30;;;;;;4094201;28;20055;-58
2021/12/29 05:23:43;;;;;;;16.38;9.60;;;15.90;73.50;;;;;;4094194;28;20117;-58
2021/12/29 05:26:08;;;;;;;18.83;9.98;;;15.90;73.40;;;;;;4096577;28;20082;-58
2021/12/29 05:28:31;;;;;;;15.10;10.20;;;15.90;73.30;;;;;;4101013;28;20117;-58
2021/12/29 05:30:54;;;;;;;18.83;10.05;;;15.90;73.50;;;;;;4097283;28;20495;-58
2021/12/29 05:33:19;;;;;;;22.25;10.35;;;15.90;73.60;;;;;;4097108;28;21048;-58
2021/12/29 05:35:43;;;;;;;18.98;10.27;;;15.90;73.60;;;;;;4097242;28;20051;-57
2021/12/29 05:38:06;;;;;;;15.70;10.43;;;15.90;73.60;;;;;;4096832;28;20078;-58
2021/12/29 05:40:30;;;;;;;15.32;9.88;;;16.00;73.50;;;;;;4097150;28;20817;-58
2021/12/29 05:42:58;;;;;;;16.45;9.93;;;16.10;73.10;;;;;;4097232;28;20424;-57
2021/12/29 05:45:21;;;;;;;17.75;10.68;;;16.30;72.30;;;;;;4107790;28;20055;-58
2021/12/29 05:47:45;;;;;;;20.23;11.20;;;16.40;71.80;;;;;;4113158;28;20050;-57
2021/12/29 05:50:11;;;;;;;18.60;10.48;;;16.40;71.30;;;;;;4098485;28;20059;-58
2021/12/29 05:52:34;;;;;;;16.92;9.57;;;16.40;71.20;;;;;;4095983;28;20098;-59
2021/12/29 05:54:57;;;;;;;14.02;9.85;;;16.40;71.20;;;;;;4095268;28;20059;-58
2021/12/29 05:57:20;;;;;;;16.75;10.18;;;16.40;71.30;;;;;;4096346;28;20047;-58
2021/12/29 05:59:45;;;;;;;21.33;10.23;;;16.30;71.30;;;;;;4096940;28;20055;-58
2021/12/29 06:02:07;;;;;;;17.27;9.40;;;16.30;71.60;;;;;;4111721;28;20098;-58
2021/12/29 06:04:31;;;;;;;19.50;8.88;;;16.30;72.00;;;;;;4112714;28;20090;-59
2021/12/29 06:06:54;;;;;;;13.07;8.82;;;16.30;72.00;;;;;;4112785;28;20411;-59
2021/12/29 06:09:17;;;;;;;12.38;9.05;;;16.30;72.00;;;;;;4106504;28;20484;-58
2021/12/29 06:11:40;;;;;;;12.07;7.85;;;16.30;71.80;;;;;;4096685;28;20107;-58
2021/12/29 06:14:03;;;;;;;14.50;8.10;;;16.30;71.90;;;;;;4096686;28;20499;-59
2021/12/29 06:16:28;;;;;;;17.58;7.70;;;16.30;72.00;;;;;;4097506;28;20098;-58
2021/12/29 06:18:51;;;;;;;9.63;7.35;;;16.30;72.00;;;;;;4109739;28;20054;-58
2021/12/29 06:21:16;;;;;;;10.98;8.35;;;16.30;72.00;;;;;;4096655;28;20519;-58
2021/12/29 06:23:39;;;;;;;10.88;7.50;;;16.30;72.00;;;;;;4096792;28;20075;-58
2021/12/29 06:26:02;;;;;;;11.73;7.63;;;16.20;72.00;;;;;;4096224;28;20134;-58
2021/12/29 06:28:26;;;;;;;12.18;7.70;;;16.20;72.30;;;;;;4108392;28;20050;-58
2021/12/29 06:30:49;;;;;;;13.48;8.23;;;16.20;72.60;;;;;;4110452;28;20054;-58
2021/12/29 06:33:14;;;;;;;12.02;8.68;;;16.20;72.60;;;;;;4110669;28;20412;-57
2021/12/29 06:35:37;;;;;;;14.50;8.02;;;16.20;73.30;;;;;;4112338;28;20054;-56
2021/12/29 06:38:00;;;;;;;12.60;8.30;;;16.30;72.30;;;;;;4103601;28;20098;-58
2021/12/29 06:40:22;;;;;;;13.27;8.13;;;16.30;72.20;;;;;;4096306;28;20046;-58
2021/12/29 06:42:45;;;;;;;17.38;9.40;;;16.30;72.10;;;;;;4096004;28;20180;-58
2021/12/29 06:45:09;;;;;;;15.68;9.38;;;16.30;72.10;;;;;;4096175;28;20059;-58
2021/12/29 06:47:33;;;;;;;22.48;9.30;;;16.30;72.20;;;;;;4095923;28;20055;-58
2021/12/29 06:49:57;;;;;;;20.00;8.93;;;16.20;72.10;;;;;;4104492;28;20059;-58
2021/12/29 06:52:20;;;;;;;14.82;9.18;;;16.20;72.20;;;;;;4111985;28;20047;-58
2021/12/29 06:54:44;;;;;;;13.98;8.32;;;16.20;72.50;;;;;;4111854;28;20474;-59
2021/12/29 06:57:07;;;;;;;15.68;9.32;;;16.10;73.70;;;;;;4108097;28;20055;-58
2021/12/29 06:59:30;;;;;;;14.20;8.05;;;16.10;73.10;;;;;;4095945;28;20055;-57
2021/12/29 07:01:54;;;;;;;18.83;9.18;;;16.00;73.20;;;;;;4096082;28;20055;-58
2021/12/29 07:04:18;;;;;;;15.55;8.65;;;16.00;73.40;;;;;;4096120;28;20428;-59
2021/12/29 07:06:42;;;;;;;21.02;9.60;;;16.00;74.00;;;;;;4110851;28;20050;-58
2021/12/29 07:09:05;;;;;;;18.20;8.95;;;16.10;73.70;;;;;;4106115;28;20054;-58
2021/12/29 07:11:28;;;;;;;15.52;9.05;;;16.10;73.30;;;;;;4111541;28;20426;-58
2021/12/29 07:13:52;;;;;;;17.73;9.73;;;16.20;72.90;;;;;;4111564;28;20039;-59
2021/12/29 07:16:14;;;;;;;15.05;8.98;;;16.20;72.70;;;;;;4111812;28;20055;-58
2021/12/29 07:18:37;;;;;;;16.40;9.18;;;16.20;72.60;;;;;;4095742;28;20118;-58
2021/12/29 07:21:00;;;;;;;17.63;8.77;;;16.30;72.80;;;;;;4095724;28;20055;-58
2021/12/29 07:23:25;;;;;;;19.67;9.20;;;16.30;72.90;;;;;;4095431;28;20126;-58
2021/12/29 07:25:48;;;;;;;17.85;9.73;;;16.30;73.10;;;;;;4109852;28;20109;-58
2021/12/29 07:28:11;;;;;;;17.58;9.40;;;16.40;73.30;;;;;;4107840;28;20105;-58
2021/12/29 07:30:35;;;;;;;16.85;9.68;;;16.60;72.50;;;;;;4117711;28;20654;-58
2021/12/29 07:32:58;;;;;;;17.23;9.93;;;16.70;71.70;;;;;;4127351;28;20097;-59
2021/12/29 07:35:21;;;;;;;15.15;8.80;;;16.80;71.20;;;;;;4127447;28;20462;-58
2021/12/29 07:37:44;;;;;;;13.90;8.90;;;16.80;70.90;;;;;;4113536;28;20050;-58
2021/12/29 07:40:10;;;;;;;15.25;9.02;;;16.80;70.80;;;;;;4118768;28;20062;-58
2021/12/29 07:42:33;;;;;;;15.88;9.52;;;16.80;70.80;;;;;;4124225;28;20424;-58
2021/12/29 07:44:56;;;;;;;13.55;9.38;;;16.80;70.90;;;;;;4107833;28;20097;-58
2021/12/29 07:47:19;;;;;;;15.95;9.98;;;16.70;71.10;;;;;;4102034;28;20047;-58
2021/12/29 07:49:42;;;;;;;21.20;10.23;;;16.70;71.40;;;;;;4095188;28;20562;-58
2021/12/29 07:52:06;;;;;;;17.52;9.63;;;16.60;71.50;;;;;;4120115;28;20495;-57
2021/12/29 07:54:29;;;;;;;14.35;10.30;;;16.50;71.80;;;;;;4095187;28;20055;-58
2021/12/29 07:56:53;;;;;;;17.50;10.00;;;16.40;72.20;;;;;;4095117;28;20050;-58
2021/12/29 07:59:18;;;;;;;21.67;10.93;;;16.40;72.60;;;;;;4094963;28;20058;-58
2021/12/29 08:01:43;;;;;;;21.02;11.25;;;16.30;72.90;;;;;;4098565;28;20109;-58
2021/12/29 08:04:06;;;;;;;23.55;11.38;;;16.20;73.20;;;;;;4108701;28;20054;-58
2021/12/29 08:06:29;;;;;;;14.77;9.77;;;16.10;73.60;;;;;;4108780;28;20471;-58
2021/12/29 08:08:52;;;;;;;18.23;11.80;;;16.10;73.90;;;;;;4108686;28;20110;-58
2021/12/29 08:11:16;;;;;;;20.65;11.20;;;16.00;74.20;;;;;;4108389;28;20097;-58
2021/12/29 08:13:40;;;;;;;18.58;10.52;;;16.00;74.50;;;;;;4108119;28;20058;-58
2021/12/29 08:16:03;;;;;;;25.90;12.02;;;16.00;74.70;;;;;;4108485;28;20058;-58
2021/12/29 08:18:27;;;;;;;17.48;10.55;;;16.00;74.60;;;;;;4124010;28;20088;-58
2021/12/29 08:20:50;;;;;;;25.95;10.82;;;16.00;74.50;;;;;;4110957;28;20054;-58
2021/12/29 08:23:13;;;;;;;19.73;11.00;;;16.00;74.60;;;;;;4123446;28;20053;-58
2021/12/29 08:25:36;;;;;;;23.80;10.57;;;16.00;74.80;;;;;;4120962;28;20093;-58
2021/12/29 08:28:00;;;;;;;21.38;10.23;;;15.90;74.70;;;;;;4112624;28;20132;-58
2021/12/29 08:30:24;;;;;;;13.70;9.05;;;15.90;74.70;;;;;;4108799;28;20593;-58
2021/12/29 08:32:47;;;;;;;22.65;10.88;;;15.90;74.90;;;;;;4115921;28;20054;-59
2021/12/29 08:35:11;;;;;;;30.05;10.40;;;15.80;75.10;;;;;;4112218;28;20058;-59
2021/12/29 08:37:34;;;;;;;19.55;9.93;;;15.80;75.40;;;;;;4118426;28;20054;-59
2021/12/29 08:39:58;;;;;;;24.58;10.25;;;15.80;75.50;;;;;;4109028;28;20043;-58
2021/12/29 08:42:21;;;;;;;22.13;10.90;;;15.90;75.50;;;;;;4112817;28;20054;-59
2021/12/29 08:44:44;;;;;;;22.75;10.35;;;15.90;75.20;;;;;;4122091;28;20483;-59
2021/12/29 08:47:09;;;;;;;17.52;9.65;;;16.00;75.00;;;;;;4111282;28;20055;-58
2021/12/29 08:49:32;;;;;;;18.13;9.10;;;16.00;74.60;;;;;;4111410;28;20107;-58
2021/12/29 08:51:56;;;;;;;20.80;9.80;;;16.10;75.30;;;;;;4114617;28;20058;-58
2021/12/29 08:54:20;;;;;;;15.15;9.15;;;16.10;74.20;;;;;;4107786;28;20050;-58
2021/12/29 08:56:43;;;;;;;21.42;9.70;;;16.10;74.10;;;;;;4114179;28;20544;-59
2021/12/29 08:59:06;;;;;;;15.43;9.13;;;16.10;74.10;;;;;;4110985;28;20179;-59
2021/12/29 09:01:29;;;;;;;14.80;9.20;;;16.10;74.20;;;;;;4114636;28;20062;-59
2021/12/29 09:03:54;;;;;;;14.52;8.48;;;16.10;74.20;;;;;;4117042;28;20097;-58
2021/12/29 09:06:18;;;;;;;16.00;8.98;;;16.00;74.30;;;;;;4118935;28;20065;-58
2021/12/29 09:08:41;;;;;;;16.05;9.07;;;16.00;74.50;;;;;;4118349;28;20050;-59
2021/12/29 09:11:05;;;;;;;12.05;9.07;;;15.90;74.80;;;;;;4113599;28;20125;-58
2021/12/29 09:13:28;;;;;;;13.75;9.50;;;15.90;74.90;;;;;;4116859;28;20054;-59
2021/12/29 09:15:56;;;;;;;14.63;9.13;;;16.00;74.80;;;;;;4114168;28;20058;-58
2021/12/29 09:18:19;;;;;;;13.30;8.40;;;16.00;74.70;;;;;;4108581;28;20043;-59
2021/12/29 09:20:46;;;;;;;13.40;8.73;;;16.00;74.70;;;;;;4116700;28;20047;-58
2021/12/29 09:23:10;;;;;;;12.85;8.18;;;16.00;74.70;;;;;;4117322;28;20066;-59
2021/12/29 09:25:34;;;;;;;13.20;8.57;;;16.00;74.70;;;;;;4117547;28;20050;-59
2021/12/29 09:27:57;;;;;;;16.85;8.63;;;16.00;74.60;;;;;;4116320;28;20054;-59
2021/12/29 09:30:22;;;;;;;11.50;8.07;;;16.00;74.40;;;;;;4114429;28;20042;-59
2021/12/29 09:32:46;;;;;;;9.73;7.85;;;16.00;74.40;;;;;;4117869;28;20046;-58
2021/12/29 09:35:11;;;;;;;9.88;7.25;;;16.00;74.40;;;;;;4115978;28;20065;-59
2021/12/29 09:37:36;;;;;;;18.50;9.10;;;16.00;74.40;;;;;;4117035;28;20105;-59
2021/12/29 09:39:59;;;;;;;12.23;8.13;;;16.00;74.40;;;;;;4117379;28;20835;-59
2021/12/29 09:42:22;;;;;;;11.10;7.88;;;15.90;74.60;;;;;;4115053;28;20058;-59
2021/12/29 09:44:45;;;;;;;12.80;8.10;;;15.90;74.80;;;;;;4115436;28;20982;-59
2021/12/29 09:47:08;;;;;;;14.15;8.85;;;15.90;75.00;;;;;;4115911;28;20109;-58
2021/12/29 09:49:34;;;;;;;11.52;7.68;;;15.80;75.10;;;;;;4116210;28;20506;-59
2021/12/29 09:51:57;;;;;;;13.52;8.30;;;15.80;75.30;;;;;;4113228;28;20054;-58
2021/12/29 09:54:22;;;;;;;15.55;7.97;;;15.70;75.40;;;;;;4117566;28;20109;-61
2021/12/29 09:56:45;;;;;;;15.40;8.05;;;15.70;75.60;;;;;;4115671;28;20055;-58
2021/12/29 09:59:08;;;;;;;14.70;7.80;;;15.60;75.80;;;;;;4117383;28;20104;-59
2021/12/29 10:01:32;;;;;;;15.10;8.50;;;15.60;76.00;;;;;;4115918;28;20074;-59
2021/12/29 10:03:55;;;;;;;12.20;7.78;;;15.50;76.10;;;;;;4116062;28;20495;-59
2021/12/29 10:06:18;;;;;;;15.43;7.63;;;15.50;76.40;;;;;;4117558;28;20054;-59
2021/12/29 10:08:43;;;;;;;15.00;7.60;;;15.50;76.50;;;;;;4116851;28;20574;-58
2021/12/29 10:11:11;;;;;;;16.55;7.65;;;15.50;76.60;;;;;;4114960;28;20097;-59
2021/12/29 10:13:37;;;;;;;11.85;7.30;;;15.40;76.70;;;;;;4115792;28;20164;-58
2021/12/29 10:16:03;;;;;;;15.68;7.43;;;15.40;76.90;;;;;;4117825;28;20118;-59
2021/12/29 10:18:29;;;;;;;11.32;7.72;;;15.30;77.00;;;;;;4116860;28;20054;-59
2021/12/29 10:20:54;;;;;;;12.63;6.82;;;15.30;77.10;;;;;;4116501;28;20062;-59
2021/12/29 10:23:21;;;;;;;18.35;6.75;;;15.30;77.30;;;;;;4115981;28;20050;-59
2021/12/29 10:25:44;;;;;;;15.65;6.90;;;15.30;77.50;;;;;;4117228;28;20059;-58
2021/12/29 10:28:29;;;;;;;12.55;7.20;;;15.20;77.50;;;;;;4117175;28;20049;-58
2021/12/29 10:30:57;;;;;;;8.25;6.35;;;15.20;77.80;;;;;;4114624;28;20471;-58
2021/12/29 10:33:20;;;;;;;10.30;6.18;;;15.20;77.80;;;;;;4118529;28;20062;-58
2021/12/29 10:35:47;;;;;;;10.82;6.38;;;15.20;78.00;;;;;;4117218;28;20573;-59
2021/12/29 10:38:13;;;;;;;9.43;6.00;;;15.10;78.00;;;;;;4117816;28;20055;-59
2021/12/29 10:40:36;;;;;;;9.63;6.25;;;15.10;78.10;;;;;;4117067;28;20210;-58
2021/12/29 10:43:01;;;;;;;10.13;6.07;;;15.10;78.20;;;;;;4116160;28;20454;-58
2021/12/29 10:45:34;;;;;;;7.95;5.45;;;15.10;78.30;;;;;;4116683;28;20054;-59
2021/12/29 10:47:58;;;;;;;8.10;5.75;;;15.10;78.60;;;;;;4112499;28;20047;-59
2021/12/29 10:50:21;;;;;;;9.55;6.45;;;15.20;78.80;;;;;;4113232;28;20050;-59
2021/12/29 10:52:49;;;;;;;9.23;5.90;;;15.20;78.50;;;;;;4116737;28;20120;-58
2021/12/29 10:55:18;;;;;;;7.25;5.47;;;15.30;79.00;;;;;;4109490;28;20055;-59
2021/12/29 10:57:42;;;;;;;7.93;6.13;;;15.30;77.90;;;;;;4109879;28;20046;-58
2021/12/29 11:00:21;;;;;;;8.25;5.95;;;15.40;77.80;;;;;;4111574;28;20055;-59
2021/12/29 11:02:46;;;;;;;8.35;6.00;;;15.40;77.60;;;;;;4121748;28;20059;-59
2021/12/29 11:05:11;;;;;;;10.20;5.28;;;15.40;77.50;;;;;;4109420;28;20106;-58
2021/12/29 11:07:36;;;;;;;7.75;5.28;;;15.40;77.50;;;;;;4109460;28;20097;-58
2021/12/29 11:10:09;;;;;;;6.90;5.63;;;15.40;77.50;;;;;;4123193;28;20104;-58
2021/12/29 11:12:43;;;;;;;7.53;5.13;;;15.40;77.50;;;;;;4124744;28;20121;-58
2021/12/29 11:15:15;;;;;;;6.13;5.07;;;15.50;77.50;;;;;;4116625;28;20570;-59
2021/12/29 11:17:39;;;;;;;6.65;4.68;;;15.50;77.40;;;;;;4107439;28;20054;-58
2021/12/29 11:20:03;;;;;;;4.75;3.83;;;15.50;77.40;;;;;;4109605;28;20080;-58
2021/12/29 11:22:28;;;;;;;7.45;5.05;;;15.50;77.40;;;;;;4117479;28;20050;-58
2021/12/29 11:24:56;;;;;;;5.28;4.78;;;15.50;77.30;;;;;;4119336;28;20173;-59
2021/12/29 11:27:20;;;;;;;11.27;5.38;;;15.50;77.30;;;;;;4121350;28;20105;-58
2021/12/29 11:29:51;;;;;;;8.77;5.63;;;15.50;77.30;;;;;;4109351;28;20384;-58
2021/12/29 11:32:20;;;;;;;6.65;5.03;;;15.60;77.10;;;;;;4108887;28;20050;-58
2021/12/29 11:34:43;;;;;;;14.48;6.25;;;15.70;76.80;;;;;;4122154;28;20483;-58
2021/12/29 11:37:10;;;;;;;8.00;5.40;;;15.70;76.60;;;;;;4109267;28;20055;-58
2021/12/29 11:39:36;;;;;;;17.55;6.32;;;15.70;76.40;;;;;;4109281;28;20058;-58
2021/12/29 11:41:59;;;;;;;12.15;6.00;;;15.70;76.40;;;;;;4111652;28;20392;-58
2021/12/29 11:44:23;;;;;;;36.45;11.30;;;15.80;76.40;;;;;;4122728;28;20050;-58
2021/12/29 11:46:46;;;;;;;14.00;6.43;;;15.70;76.40;;;;;;4122832;28;20054;-58
2021/12/29 11:49:09;;;;;;;27.70;8.32;;;15.70;76.50;;;;;;4108929;28;20454;-58
2021/12/29 11:51:41;;;;;;;19.77;7.32;;;15.70;76.50;;;;;;4108950;28;20101;-58
2021/12/29 11:54:11;;;;;;;;;;;15.70;76.70;;;;;;4109071;28;20656;-59
2021/12/29 11:56:41;;;;;;;25.30;8.40;;;15.60;76.80;;;;;;4109215;28;19997;-59
2021/12/29 11:59:05;;;;;;;14.55;7.20;;;15.60;76.90;;;;;;4108344;28;20102;-59
2021/12/29 12:01:55;;;;;;;26.35;8.60;;;15.50;77.10;;;;;;4114048;28;20046;-58
2021/12/29 12:04:21;;;;;;;15.57;6.82;;;15.50;77.30;;;;;;4110093;28;20063;-58
2021/12/29 12:06:45;;;;;;;17.75;7.93;;;15.50;77.40;;;;;;4108630;28;20058;-59
2021/12/29 12:09:14;;;;;;;20.55;9.15;;;15.40;77.60;;;;;;4110013;28;20129;-59
2021/12/29 12:11:41;;;;;;;18.20;7.18;;;15.40;77.70;;;;;;4110996;28;21044;-59
2021/12/29 12:14:17;;;;;;;17.98;7.97;;;15.30;77.80;;;;;;4110335;28;20062;-59
2021/12/29 12:16:52;;;;;;;22.88;9.45;;;15.30;77.80;;;;;;4115181;28;20050;-58
2021/12/29 12:19:20;;;;;;;21.35;10.02;;;15.30;78.00;;;;;;4108457;28;20113;-58
2021/12/29 12:21:44;;;;;;;23.23;8.98;;;15.30;78.20;;;;;;4108081;28;20051;-58
2021/12/29 12:24:15;;;;;;;16.27;7.75;;;15.20;78.30;;;;;;4108105;28;20113;-58
2021/12/29 12:26:53;;;;;;;19.73;7.63;;;15.20;78.40;;;;;;4108551;28;20714;-58
2021/12/29 12:29:16;;;;;;;16.75;7.80;;;15.20;78.50;;;;;;4117259;28;20108;-57